Time;durP1;ratioP1;P1;durP2;ratioP2;P2;SDS_P1;SDS_P2;PMS_P1;PMS_P2;Temp;Humidity;BMP_temperature;BMP_pressure;BME280_temperature;BME280_humidity;BME280_pressure;Samples;Min_cycle;Max_cycle;Signal;HPM_P1;HPM_P2
2022/12/03 05:05:38;;;;;;;9.75;6.85;;;4.30;99.90;;;;;;5034962;23;20241;-69
2022/12/03 05:08:03;;;;;;;11.83;7.47;;;4.30;99.90;;;;;;4936443;29;20181;-70
2022/12/03 05:10:29;;;;;;;11.20;6.80;;;4.30;99.90;;;;;;4937209;29;20245;-67
2022/12/03 05:12:55;;;;;;;11.53;7.57;;;4.30;99.90;;;;;;4936452;29;20189;-70
2022/12/03 05:15:20;;;;;;;16.67;8.93;;;4.30;99.90;;;;;;4936828;29;20201;-69
2022/12/03 05:17:46;;;;;;;11.00;9.10;;;4.20;99.90;;;;;;4936564;29;20174;-70
2022/12/03 05:22:56;;;;;;;13.95;6.90;;;4.30;99.90;;;;;;4936607;29;20240;-69
2022/12/03 05:25:21;;;;;;;12.23;7.23;;;4.40;99.90;;;;;;4936663;29;20197;-69
2022/12/03 05:27:47;;;;;;;10.67;7.27;;;4.30;99.90;;;;;;4936633;29;20204;-71
2022/12/03 05:30:13;;;;;;;12.77;6.53;;;4.30;99.90;;;;;;4936412;29;20257;-70
2022/12/03 05:32:38;;;;;;;11.85;9.15;;;4.30;99.90;;;;;;4935260;29;20174;-70
2022/12/03 05:35:04;;;;;;;11.67;7.50;;;4.30;99.90;;;;;;4935200;29;20669;-70
2022/12/03 05:37:30;;;;;;;10.45;7.00;;;4.30;99.90;;;;;;4936600;29;20175;-70
2022/12/03 05:39:56;;;;;;;7.20;6.30;;;4.30;99.90;;;;;;4936024;29;20184;-69
2022/12/03 05:45:06;;;;;;;10.85;7.95;;;4.20;99.90;;;;;;4935746;29;20207;-71
2022/12/03 05:47:31;;;;;;;12.20;7.25;;;4.20;99.90;;;;;;4936430;29;20244;-70
2022/12/03 05:49:57;;;;;;;9.67;7.30;;;4.20;99.90;;;;;;4936427;29;20205;-69
2022/12/03 05:52:22;;;;;;;11.60;8.00;;;4.20;99.90;;;;;;4936349;29;20177;-70
2022/12/03 05:54:48;;;;;;;10.67;7.70;;;4.20;99.90;;;;;;4936018;29;20191;-71
2022/12/03 05:57:13;;;;;;;9.33;6.33;;;4.20;99.90;;;;;;4936258;29;20181;-69
2022/12/03 05:59:39;;;;;;;8.63;7.50;;;4.20;99.90;;;;;;4936513;29;20200;-71
2022/12/03 06:02:05;;;;;;;11.90;6.60;;;4.20;99.90;;;;;;4936168;29;20267;-68
2022/12/03 06:04:30;;;;;;;12.80;7.33;;;4.20;99.90;;;;;;4934665;29;20670;-69
2022/12/03 06:06:56;;;;;;;9.93;7.53;;;4.20;99.90;;;;;;4935867;29;20189;-71
2022/12/03 06:09:21;;;;;;;9.10;6.90;;;4.20;99.90;;;;;;4935713;29;20232;-70
2022/12/03 06:11:52;;;;;;;6.50;5.27;;;4.20;99.90;;;;;;4922568;29;20672;-71
2022/12/03 06:14:17;;;;;;;12.70;8.93;;;4.20;99.90;;;;;;4935241;29;20327;-70
2022/12/03 06:16:43;;;;;;;11.40;8.30;;;4.30;99.90;;;;;;4935814;29;20669;-72
2022/12/03 06:19:08;;;;;;;12.03;7.60;;;4.30;99.90;;;;;;4936004;29;20181;-71
2022/12/03 06:21:34;;;;;;;10.50;7.47;;;4.40;99.90;;;;;;4935999;29;20174;-68
2022/12/03 06:24:00;;;;;;;11.83;7.30;;;4.40;99.90;;;;;;4935558;29;20246;-71
2022/12/03 06:26:25;;;;;;;6.53;5.40;;;4.40;99.90;;;;;;4936000;29;20624;-69
2022/12/03 06:28:51;;;;;;;10.70;6.20;;;4.30;99.90;;;;;;4935782;29;20200;-69
2022/12/03 06:31:16;;;;;;;10.87;8.73;;;4.30;99.90;;;;;;4936491;29;20244;-72
2022/12/03 06:33:42;;;;;;;9.00;6.30;;;4.30;99.90;;;;;;4939169;29;20252;-71
2022/12/03 06:36:08;;;;;;;10.73;7.10;;;4.30;99.90;;;;;;4939583;29;20173;-70
2022/12/03 06:38:33;;;;;;;12.20;8.60;;;4.40;99.90;;;;;;4939525;29;20218;-68
2022/12/03 06:40:59;;;;;;;9.30;7.17;;;4.40;99.90;;;;;;4939943;29;20182;-69
2022/12/03 06:43:25;;;;;;;14.67;8.13;;;4.40;99.90;;;;;;4938884;29;20177;-71
2022/12/03 06:45:50;;;;;;;14.07;7.77;;;4.50;99.90;;;;;;4939830;29;20175;-69
2022/12/03 06:48:16;;;;;;;9.30;6.50;;;4.50;99.90;;;;;;4939547;29;20170;-70
2022/12/03 06:50:41;;;;;;;12.37;6.97;;;4.50;99.90;;;;;;4939437;29;20303;-69
2022/12/03 06:53:07;;;;;;;7.93;6.27;;;4.50;99.90;;;;;;4938103;29;20186;-71
2022/12/03 06:55:32;;;;;;;15.43;8.00;;;4.50;99.90;;;;;;4938449;29;20197;-68
2022/12/03 06:57:59;;;;;;;8.63;6.20;;;4.50;99.90;;;;;;4939069;29;20238;-71
2022/12/03 07:00:25;;;;;;;12.43;8.93;;;4.50;99.90;;;;;;4939477;29;20180;-69
2022/12/03 07:02:50;;;;;;;9.77;8.00;;;4.50;99.90;;;;;;4937742;29;20190;-71
2022/12/03 07:05:16;;;;;;;14.50;8.77;;;4.50;99.90;;;;;;4937779;29;20689;-70
2022/12/03 07:07:41;;;;;;;14.60;7.17;;;4.50;99.90;;;;;;4939315;29;20201;-69
2022/12/03 07:10:07;;;;;;;13.40;8.30;;;4.50;99.90;;;;;;4939239;29;20243;-70
2022/12/03 07:12:33;;;;;;;11.73;6.97;;;4.40;99.90;;;;;;4938940;29;20704;-71
2022/12/03 07:14:59;;;;;;;13.83;7.23;;;4.50;99.90;;;;;;4938478;29;20455;-71
2022/12/03 07:17:24;;;;;;;13.20;8.77;;;4.50;99.90;;;;;;4938993;29;20512;-69
2022/12/03 07:19:50;;;;;;;13.73;8.83;;;4.50;99.90;;;;;;4939192;29;20634;-71
2022/12/03 07:22:15;;;;;;;12.37;7.43;;;4.50;99.90;;;;;;4938579;29;20186;-70
2022/12/03 07:24:41;;;;;;;10.37;7.50;;;4.50;99.90;;;;;;4938012;29;20590;-70
2022/12/03 07:27:07;;;;;;;10.30;6.93;;;4.50;99.90;;;;;;4939152;29;20251;-68
2022/12/03 07:29:32;;;;;;;18.03;7.70;;;4.50;99.90;;;;;;4939090;29;20201;-70
2022/12/03 07:31:58;;;;;;;16.00;9.33;;;4.40;99.90;;;;;;4938577;29;20189;-69
2022/12/03 07:34:24;;;;;;;12.50;8.43;;;4.40;99.90;;;;;;4938218;29;20194;-70
2022/12/03 07:36:49;;;;;;;20.70;9.37;;;4.40;99.90;;;;;;4938210;29;20536;-71
2022/12/03 07:39:15;;;;;;;15.20;8.37;;;4.40;99.90;;;;;;4938366;29;20185;-69
2022/12/03 07:41:40;;;;;;;14.90;8.63;;;4.40;99.90;;;;;;4938542;29;20233;-69
2022/12/03 07:44:06;;;;;;;15.93;9.20;;;4.40;99.90;;;;;;4937378;29;20229;-70
2022/12/03 07:46:32;;;;;;;10.00;6.43;;;4.50;99.90;;;;;;4938515;29;20630;-70
2022/12/03 07:48:57;;;;;;;15.60;9.60;;;4.40;99.90;;;;;;4938372;29;20181;-69
2022/12/03 07:51:23;;;;;;;11.87;7.70;;;4.40;99.90;;;;;;4938186;29;20256;-71
2022/12/03 07:53:48;;;;;;;16.23;9.17;;;4.50;99.90;;;;;;4937611;29;20193;-71
2022/12/03 07:56:14;;;;;;;14.87;8.67;;;4.50;99.90;;;;;;4938342;29;20182;-68
2022/12/03 07:58:39;;;;;;;15.73;11.17;;;4.50;99.90;;;;;;4938178;29;20180;-69
2022/12/03 08:01:05;;;;;;;15.23;10.97;;;4.50;99.90;;;;;;4937900;29;20205;-69
2022/12/03 08:03:30;;;;;;;16.23;9.73;;;4.50;99.90;;;;;;4937751;29;20630;-69
2022/12/03 08:05:56;;;;;;;11.30;8.80;;;4.50;99.90;;;;;;4936711;29;20198;-70
2022/12/03 08:08:22;;;;;;;14.90;10.17;;;4.50;99.90;;;;;;4938084;29;20217;-67
2022/12/03 08:10:47;;;;;;;19.20;8.73;;;4.50;99.90;;;;;;4938118;29;20550;-67
2022/12/03 08:13:15;;;;;;;15.70;8.27;;;4.50;99.90;;;;;;4937758;29;20239;-70
2022/12/03 08:15:41;;;;;;;17.10;9.65;;;4.50;99.90;;;;;;4936296;29;20229;-68
2022/12/03 08:18:13;;;;;;;18.67;9.55;;;4.60;99.90;;;;;;4938057;29;20169;-69
2022/12/03 08:20:41;;;;;;;12.40;9.80;;;4.60;99.90;;;;;;4938203;29;20200;-68
2022/12/03 08:23:16;;;;;;;12.88;8.50;;;4.60;99.90;;;;;;4937420;29;20170;-67
2022/12/03 08:25:42;;;;;;;15.73;9.10;;;4.60;99.90;;;;;;4937290;29;20201;-68
2022/12/03 08:28:18;;;;;;;11.30;7.88;;;4.60;99.90;;;;;;4937589;29;20602;-68
2022/12/03 08:30:53;;;;;;;23.88;10.50;;;4.60;99.90;;;;;;4937613;29;20208;-68
2022/12/03 08:33:49;;;;;;;12.23;7.72;;;4.60;99.90;;;;;;4937273;29;20582;-67
2022/12/03 08:36:20;;;;;;;14.88;7.70;;;4.60;99.90;;;;;;4925563;29;20565;-69
2022/12/03 08:39:04;;;;;;;13.23;8.25;;;4.60;99.90;;;;;;4937298;29;20173;-69
2022/12/03 08:44:31;;;;;;;9.10;7.00;;;4.60;99.90;;;;;;4935701;29;20228;-67
2022/12/03 08:47:06;;;;;;;12.73;7.93;;;4.70;99.90;;;;;;4937504;29;20239;-66
2022/12/03 08:49:32;;;;;;;16.08;8.50;;;4.60;99.90;;;;;;4937422;29;20208;-67
2022/12/03 08:52:00;;;;;;;13.50;9.40;;;4.70;99.90;;;;;;4937226;29;20169;-66
2022/12/03 08:54:26;;;;;;;13.32;6.75;;;4.70;99.90;;;;;;4936553;29;20201;-67
2022/12/03 08:56:52;;;;;;;11.47;7.90;;;4.70;99.90;;;;;;4937395;29;20209;-69
2022/12/03 08:59:31;;;;;;;9.63;6.50;;;4.70;99.90;;;;;;4937075;29;20413;-70
2022/12/03 09:01:58;;;;;;;11.80;7.50;;;4.70;99.90;;;;;;4937162;29;20403;-70
2022/12/03 09:04:39;;;;;;;16.92;7.53;;;4.70;99.90;;;;;;4936495;29;20183;-70
2022/12/03 09:07:05;;;;;;;18.58;9.75;;;4.60;99.90;;;;;;4937078;29;20188;-69
2022/12/03 09:09:31;;;;;;;9.60;6.30;;;4.60;99.90;;;;;;4937028;29;20198;-71
2022/12/03 09:11:56;;;;;;;13.53;8.20;;;4.50;99.90;;;;;;4935515;29;20202;-72
2022/12/03 09:14:22;;;;;;;12.90;6.70;;;4.50;99.90;;;;;;4936380;29;20661;-70
2022/12/03 09:16:50;;;;;;;10.40;7.53;;;4.60;99.90;;;;;;4936795;29;20165;-68
2022/12/03 09:19:16;;;;;;;12.88;7.18;;;4.60;99.90;;;;;;4936959;29;20409;-69
2022/12/03 09:21:42;;;;;;;12.00;7.90;;;4.60;99.90;;;;;;4934725;29;20176;-69
2022/12/03 09:24:07;;;;;;;9.80;6.63;;;4.60;99.90;;;;;;4936027;29;20461;-69
2022/12/03 09:26:33;;;;;;;8.17;6.30;;;4.60;99.90;;;;;;4936589;29;20630;-70
2022/12/03 09:28:58;;;;;;;15.27;7.30;;;4.60;99.90;;;;;;4936380;29;20172;-68
2022/12/03 09:31:24;;;;;;;14.90;8.00;;;4.50;99.90;;;;;;4936038;29;20243;-67
2022/12/03 09:33:50;;;;;;;10.80;7.83;;;4.50;99.90;;;;;;4935589;29;20190;-67
2022/12/03 09:36:15;;;;;;;14.67;8.90;;;4.50;99.90;;;;;;4936575;29;20273;-68
2022/12/03 09:38:41;;;;;;;11.17;7.67;;;4.50;99.90;;;;;;4936110;29;20710;-68
2022/12/03 09:41:08;;;;;;;9.95;6.22;;;4.50;99.90;;;;;;4936628;29;20174;-69
2022/12/03 09:43:34;;;;;;;9.48;5.88;;;4.50;99.90;;;;;;4935934;29;20174;-68
2022/12/03 09:46:00;;;;;;;12.95;8.23;;;4.50;99.90;;;;;;4936627;29;20184;-69
2022/12/03 09:48:26;;;;;;;9.10;6.53;;;4.50;99.90;;;;;;4936205;29;20185;-68
2022/12/03 09:50:52;;;;;;;14.20;7.67;;;4.50;99.90;;;;;;4936362;29;20454;-70
2022/12/03 09:53:24;;;;;;;9.97;7.53;;;4.50;99.90;;;;;;4935692;29;20428;-68
2022/12/03 09:55:50;;;;;;;11.52;6.45;;;4.60;99.90;;;;;;4934889;29;20175;-69
2022/12/03 09:58:18;;;;;;;10.77;8.30;;;4.60;99.90;;;;;;4936186;29;20179;-70
2022/12/03 10:00:49;;;;;;;12.13;8.52;;;4.60;99.90;;;;;;4935977;29;20183;-69
2022/12/03 10:03:17;;;;;;;13.15;8.90;;;4.70;99.90;;;;;;4934477;29;20213;-68
2022/12/03 10:05:43;;;;;;;10.75;6.07;;;4.70;99.90;;;;;;4935766;29;20215;-68
2022/12/03 10:08:17;;;;;;;11.43;6.97;;;4.70;99.90;;;;;;4935600;29;20264;-69
2022/12/03 10:10:43;;;;;;;10.63;6.80;;;4.80;99.90;;;;;;4935780;29;20228;-69
2022/12/03 10:13:33;;;;;;;11.70;8.10;;;4.70;99.90;;;;;;4935781;29;20657;-68
2022/12/03 10:16:00;;;;;;;10.32;6.63;;;4.70;99.90;;;;;;4935072;29;20252;-67
2022/12/03 10:19:00;;;;;;;9.85;5.65;;;4.70;99.90;;;;;;4923414;29;20706;-66
2022/12/03 10:21:34;;;;;;;9.65;8.38;;;4.60;99.90;;;;;;4935842;29;20712;-69
2022/12/03 10:24:21;;;;;;;8.98;6.45;;;4.60;99.90;;;;;;4935642;29;20232;-68
2022/12/03 10:26:48;;;;;;;7.93;6.18;;;4.60;99.90;;;;;;4933922;29;20173;-68
2022/12/03 10:29:17;;;;;;;9.23;7.30;;;4.50;99.90;;;;;;4934957;29;20550;-68
2022/12/03 10:31:45;;;;;;;12.73;7.68;;;4.40;99.90;;;;;;4936070;29;20206;-71
2022/12/03 10:34:10;;;;;;;9.80;6.47;;;4.40;99.90;;;;;;4935454;29;20197;-66
2022/12/03 10:36:36;;;;;;;17.20;7.10;;;4.40;99.90;;;;;;4935712;29;20198;-69
2022/12/03 10:39:11;;;;;;;12.27;6.28;;;4.40;99.90;;;;;;4935331;29;20174;-69
2022/12/03 10:41:38;;;;;;;11.40;6.57;;;4.40;99.90;;;;;;4935896;29;20172;-69
2022/12/03 10:44:19;;;;;;;11.20;8.07;;;4.30;99.90;;;;;;4934981;29;20221;-67
2022/12/03 10:47:04;;;;;;;10.68;6.28;;;4.30;99.90;;;;;;4935592;29;20213;-66
2022/12/03 10:49:30;;;;;;;8.05;6.10;;;4.30;99.90;;;;;;4935113;29;20200;-70
2022/12/03 10:51:55;;;;;;;6.50;4.80;;;4.20;99.90;;;;;;4935545;29;20649;-68
2022/12/03 10:54:25;;;;;;;10.33;7.60;;;4.20;99.90;;;;;;4934832;29;20669;-70
2022/12/03 10:56:51;;;;;;;9.82;7.15;;;4.20;99.90;;;;;;4934977;29;20718;-69
2022/12/03 10:59:23;;;;;;;8.98;5.57;;;4.20;99.90;;;;;;4935261;29;20578;-68
2022/12/03 11:01:49;;;;;;;12.70;8.05;;;4.20;99.90;;;;;;4934610;29;20178;-67
2022/12/03 11:04:29;;;;;;;11.63;6.68;;;4.30;99.90;;;;;;4934803;29;20260;-69
2022/12/03 11:06:55;;;;;;;9.77;7.50;;;4.30;99.90;;;;;;4935172;29;20189;-67
2022/12/03 11:09:27;;;;;;;12.13;7.83;;;4.30;99.90;;;;;;4935233;29;20179;-70
2022/12/03 11:11:53;;;;;;;11.10;8.07;;;4.30;99.90;;;;;;4935293;29;20189;-67
2022/12/03 11:14:49;;;;;;;13.23;6.85;;;4.30;99.90;;;;;;4935014;29;20260;-69
2022/12/03 11:17:39;;;;;;;6.93;6.05;;;4.30;99.90;;;;;;4934065;29;20565;-71
2022/12/03 11:20:25;;;;;;;11.02;6.15;;;4.30;99.90;;;;;;4937866;29;20186;-67
2022/12/03 11:22:52;;;;;;;8.55;6.22;;;4.30;99.90;;;;;;4937041;29;20204;-70
2022/12/03 11:25:24;;;;;;;7.38;6.05;;;4.30;99.90;;;;;;4938071;29;20238;-70
2022/12/03 11:28:31;;;;;;;10.90;6.25;;;4.30;99.90;;;;;;4938588;29;20177;-71
2022/12/03 11:31:10;;;;;;;10.73;6.78;;;4.30;99.90;;;;;;4907185;29;20211;-70
2022/12/03 11:33:39;;;;;;;11.65;5.97;;;4.30;99.90;;;;;;4917531;29;20182;-69
2022/12/03 11:36:05;;;;;;;7.85;4.72;;;4.30;99.90;;;;;;4917332;29;20566;-73
2022/12/03 11:38:39;;;;;;;9.00;5.13;;;4.30;99.90;;;;;;4917497;29;20663;-69
2022/12/03 11:41:14;;;;;;;8.27;4.30;;;4.30;99.90;;;;;;4917256;29;20606;-71
2022/12/03 11:44:04;;;;;;;9.45;7.20;;;4.30;99.90;;;;;;4916286;29;20213;-67
2022/12/03 11:46:41;;;;;;;7.32;6.13;;;4.30;99.90;;;;;;4899253;29;20597;-66
2022/12/03 11:49:34;;;;;;;8.30;5.38;;;4.40;99.90;;;;;;4917390;29;20554;-69
2022/12/03 11:52:02;;;;;;;7.57;4.47;;;4.30;99.90;;;;;;4916918;29;20182;-67
2022/12/03 11:54:32;;;;;;;11.52;6.15;;;4.40;99.90;;;;;;4916567;29;20199;-68
2022/12/03 11:56:57;;;;;;;6.68;4.70;;;4.40;99.90;;;;;;4917099;29;20182;-68
2022/12/03 11:59:23;;;;;;;9.50;6.43;;;4.40;99.90;;;;;;4917381;29;20185;-69
2022/12/03 12:01:48;;;;;;;8.20;4.70;;;4.40;99.90;;;;;;4917061;29;20184;-68
2022/12/03 12:04:34;;;;;;;9.63;6.43;;;4.30;99.90;;;;;;4916849;29;20718;-68
2022/12/03 12:07:00;;;;;;;8.73;6.38;;;4.30;99.90;;;;;;4918498;29;20273;-67
2022/12/03 12:09:51;;;;;;;6.90;4.63;;;4.30;99.90;;;;;;4933378;29;20173;-68
2022/12/03 12:12:19;;;;;;;8.55;5.15;;;4.20;99.90;;;;;;4939666;29;20177;-68
2022/12/03 12:14:44;;;;;;;7.50;5.72;;;4.20;99.90;;;;;;4936807;29;20193;-68
2022/12/03 12:17:28;;;;;;;8.03;5.30;;;4.20;99.90;;;;;;4922842;29;20558;-69
2022/12/03 12:20:25;;;;;;;5.93;5.32;;;4.20;99.90;;;;;;4937097;29;20178;-66
2022/12/03 12:23:12;;;;;;;8.63;5.20;;;4.10;99.90;;;;;;4919178;29;20232;-71
2022/12/03 12:25:39;;;;;;;7.47;3.55;;;4.20;99.90;;;;;;4936893;29;20209;-68
2022/12/03 12:28:06;;;;;;;10.57;5.88;;;4.10;99.90;;;;;;4937310;29;20204;-69
2022/12/03 12:30:31;;;;;;;7.25;6.40;;;4.20;99.90;;;;;;4935801;29;20254;-68
2022/12/03 12:33:21;;;;;;;11.23;6.67;;;4.20;99.90;;;;;;4937083;29;20716;-71
2022/12/03 12:35:47;;;;;;;8.15;5.35;;;4.20;99.90;;;;;;4937489;29;20181;-67
2022/12/03 12:38:16;;;;;;;7.00;5.75;;;4.20;99.90;;;;;;4937147;29;20178;-69
2022/12/03 12:40:45;;;;;;;5.70;4.60;;;4.20;99.90;;;;;;4937631;29;20546;-68
2022/12/03 12:43:18;;;;;;;14.15;6.18;;;4.20;99.90;;;;;;4936636;29;20177;-70
2022/12/03 12:45:44;;;;;;;8.77;5.93;;;4.20;99.90;;;;;;4937469;29;20301;-71
2022/12/03 12:48:32;;;;;;;9.45;6.38;;;4.20;99.90;;;;;;4936701;29;20566;-66
2022/12/03 12:50:58;;;;;;;8.32;5.75;;;4.20;99.90;;;;;;4937221;29;20209;-66
2022/12/03 12:53:27;;;;;;;9.47;4.80;;;4.20;99.90;;;;;;4935263;29;20680;-66
2022/12/03 12:55:58;;;;;;;8.45;5.45;;;4.30;99.90;;;;;;4936985;29;20256;-67
2022/12/03 12:58:24;;;;;;;9.57;6.85;;;4.30;99.90;;;;;;4935915;29;20622;-67
2022/12/03 13:00:54;;;;;;;8.50;5.75;;;4.30;99.90;;;;;;4935439;29;20205;-68
2022/12/03 13:03:24;;;;;;;8.68;4.60;;;4.30;99.90;;;;;;4936654;29;20177;-67
2022/12/03 13:05:51;;;;;;;10.32;7.10;;;4.30;99.90;;;;;;4936673;29;20209;-65
2022/12/03 13:08:21;;;;;;;6.97;5.80;;;4.30;99.90;;;;;;4936838;29;20257;-67
2022/12/03 13:10:47;;;;;;;6.20;4.82;;;4.30;99.90;;;;;;4936676;29;20209;-65
2022/12/03 13:13:25;;;;;;;7.25;6.32;;;4.30;99.90;;;;;;4936277;29;20551;-65
2022/12/03 13:15:57;;;;;;;7.13;5.45;;;4.20;99.90;;;;;;4936994;29;20173;-68
2022/12/03 13:18:48;;;;;;;7.75;6.32;;;4.20;99.90;;;;;;4917901;29;20253;-67
2022/12/03 13:21:43;;;;;;;14.18;7.60;;;4.20;99.90;;;;;;4917546;29;20189;-66
2022/12/03 13:24:27;;;;;;;7.15;5.50;;;4.10;99.90;;;;;;4932621;29;20720;-66
2022/12/03 13:26:53;;;;;;;9.43;5.65;;;4.10;99.90;;;;;;4938974;29;20208;-66
2022/12/03 13:29:21;;;;;;;6.90;5.20;;;4.10;99.90;;;;;;4946027;28;20198;-65
2022/12/03 13:32:01;;;;;;;18.38;7.45;;;4.10;99.90;;;;;;4936612;29;20228;-66
2022/12/03 13:34:36;;;;;;;7.22;4.80;;;4.00;99.90;;;;;;4936570;29;20264;-69
2022/12/03 13:37:05;;;;;;;9.38;6.75;;;4.00;99.90;;;;;;4935157;29;20643;-70
2022/12/03 13:39:37;;;;;;;8.25;6.28;;;4.00;99.90;;;;;;4936256;29;20182;-70
2022/12/03 13:42:45;;;;;;;14.02;7.18;;;4.00;99.90;;;;;;4934322;29;20188;-71
2022/12/03 13:45:13;;;;;;;13.93;6.60;;;4.00;99.90;;;;;;4936334;29;20664;-70
2022/12/03 13:47:54;;;;;;;10.98;5.75;;;4.00;99.90;;;;;;4936152;29;20175;-68
2022/12/03 13:50:39;;;;;;;9.93;5.60;;;4.00;99.90;;;;;;4936421;29;20302;-67
2022/12/03 13:53:27;;;;;;;8.48;5.47;;;4.00;99.90;;;;;;4950702;28;20173;-66
2022/12/03 13:56:12;;;;;;;8.00;5.70;;;4.00;99.90;;;;;;4936202;29;20173;-68
2022/12/03 13:58:38;;;;;;;7.40;5.35;;;4.00;99.90;;;;;;4932196;29;20251;-68
2022/12/03 14:01:03;;;;;;;13.53;6.83;;;3.90;99.90;;;;;;4936312;29;20632;-66
2022/12/03 14:03:29;;;;;;;7.83;4.80;;;3.90;99.90;;;;;;4935690;29;20177;-67
2022/12/03 14:05:55;;;;;;;8.07;4.27;;;3.90;99.90;;;;;;4935649;29;20204;-67
2022/12/03 14:08:20;;;;;;;9.53;5.53;;;3.90;99.90;;;;;;4935870;29;20206;-68
2022/12/03 14:10:46;;;;;;;15.77;7.97;;;3.90;99.90;;;;;;4936075;29;20200;-68
2022/12/03 14:13:11;;;;;;;10.30;6.67;;;3.80;99.90;;;;;;4935780;29;20682;-67
2022/12/03 14:15:37;;;;;;;10.90;6.13;;;3.80;99.90;;;;;;4935930;29;20194;-68
2022/12/03 14:18:03;;;;;;;8.27;4.80;;;3.80;99.90;;;;;;4935144;29;20245;-67
2022/12/03 14:20:28;;;;;;;8.07;5.03;;;3.80;99.90;;;;;;4932640;29;20177;-69
2022/12/03 14:22:54;;;;;;;8.33;5.40;;;3.80;99.90;;;;;;4935102;29;20181;-65
2022/12/03 14:25:19;;;;;;;14.57;7.27;;;3.80;99.90;;;;;;4935869;29;20601;-66
2022/12/03 14:27:45;;;;;;;5.80;5.23;;;3.80;99.90;;;;;;4935460;29;20280;-68
2022/12/03 14:30:11;;;;;;;8.50;4.97;;;3.80;99.90;;;;;;4935087;29;20205;-68
2022/12/03 14:32:36;;;;;;;7.40;5.07;;;3.80;99.90;;;;;;4934101;29;20181;-67
2022/12/03 14:35:02;;;;;;;11.00;6.23;;;3.80;99.90;;;;;;4935246;29;20201;-66
2022/12/03 14:37:28;;;;;;;8.90;4.67;;;3.70;99.90;;;;;;4935675;29;20180;-68
2022/12/03 14:39:53;;;;;;;9.63;5.70;;;3.70;99.90;;;;;;4935569;29;20236;-66
2022/12/03 14:42:19;;;;;;;6.53;4.23;;;3.70;99.90;;;;;;4936371;29;20703;-66
2022/12/03 14:44:48;;;;;;;11.67;6.20;;;3.70;99.90;;;;;;4935037;29;20205;-67
2022/12/03 14:47:15;;;;;;;7.72;6.38;;;3.70;99.90;;;;;;4935782;29;20177;-66
2022/12/03 14:49:41;;;;;;;7.05;5.20;;;3.70;99.90;;;;;;4935310;29;20193;-66
2022/12/03 14:52:07;;;;;;;10.35;5.20;;;3.60;99.90;;;;;;4935759;29;20180;-66
2022/12/03 14:54:33;;;;;;;8.82;5.15;;;3.60;99.90;;;;;;4936957;29;20670;-66
2022/12/03 14:56:59;;;;;;;6.53;5.10;;;3.60;99.90;;;;;;4936769;29;20180;-65
2022/12/03 14:59:24;;;;;;;5.47;4.80;;;3.50;99.90;;;;;;4937288;29;20403;-67
2022/12/03 15:01:51;;;;;;;5.87;5.20;;;3.50;99.90;;;;;;4937187;29;20201;-66
2022/12/03 15:04:17;;;;;;;5.70;4.65;;;3.50;99.90;;;;;;4935325;29;20618;-68
2022/12/03 15:06:43;;;;;;;5.90;4.47;;;3.50;99.90;;;;;;4937299;29;20185;-66
2022/12/03 15:09:09;;;;;;;16.90;6.00;;;3.50;99.90;;;;;;4938479;29;20743;-67
2022/12/03 15:11:35;;;;;;;12.38;6.30;;;3.40;99.90;;;;;;4938987;29;20297;-67
2022/12/03 15:14:00;;;;;;;9.93;4.77;;;3.50;99.90;;;;;;4937270;29;20240;-67
2022/12/03 15:16:26;;;;;;;10.17;5.77;;;3.50;99.90;;;;;;4938852;29;20272;-67
2022/12/03 15:18:52;;;;;;;11.60;6.47;;;3.50;99.90;;;;;;4938760;29;20178;-67
2022/12/03 15:21:18;;;;;;;11.15;4.40;;;3.50;99.90;;;;;;4940636;29;20190;-69
2022/12/03 15:23:44;;;;;;;6.00;5.17;;;3.40;99.90;;;;;;4939928;29;20202;-67
2022/12/03 15:26:09;;;;;;;5.32;3.75;;;3.40;99.90;;;;;;4939947;29;20613;-67
2022/12/03 15:28:35;;;;;;;5.37;4.67;;;3.40;99.90;;;;;;4940021;29;20170;-66
2022/12/03 15:31:01;;;;;;;7.10;5.10;;;3.40;99.90;;;;;;4940453;29;20561;-66
2022/12/03 15:33:26;;;;;;;4.27;3.60;;;3.40;99.90;;;;;;4939402;29;20180;-66
2022/12/03 15:35:52;;;;;;;4.13;3.43;;;3.40;99.90;;;;;;4939788;29;20178;-67
2022/12/03 15:38:18;;;;;;;7.87;4.70;;;3.40;99.90;;;;;;4938705;29;20181;-67
2022/12/03 15:40:43;;;;;;;10.43;5.30;;;3.40;99.90;;;;;;4938685;29;20180;-67
2022/12/03 15:43:09;;;;;;;10.13;5.03;;;3.40;99.90;;;;;;4937587;29;20185;-66
2022/12/03 15:45:35;;;;;;;6.53;5.77;;;3.40;99.90;;;;;;4938646;29;20205;-67
2022/12/03 15:48:01;;;;;;;7.37;4.73;;;3.30;99.90;;;;;;4938399;29;20464;-66
2022/12/03 15:50:27;;;;;;;8.75;4.25;;;3.30;99.90;;;;;;4938077;29;20209;-68
2022/12/03 15:52:53;;;;;;;6.68;4.68;;;3.30;99.90;;;;;;4938223;29;20208;-67
2022/12/03 15:55:19;;;;;;;9.53;4.03;;;3.30;99.90;;;;;;4937181;29;20236;-67
2022/12/03 15:57:44;;;;;;;5.57;3.80;;;3.20;99.90;;;;;;4938006;29;20283;-66
2022/12/03 16:00:12;;;;;;;8.13;5.77;;;3.20;99.90;;;;;;4937526;29;20185;-66
2022/12/03 16:02:37;;;;;;;5.65;4.07;;;3.20;99.90;;;;;;4937155;29;20586;-66
2022/12/03 16:05:07;;;;;;;8.87;5.37;;;3.20;99.90;;;;;;4937123;29;20211;-65
2022/12/03 16:07:32;;;;;;;8.57;4.70;;;3.30;99.90;;;;;;4937485;29;20956;-66
2022/12/03 16:09:58;;;;;;;7.90;5.23;;;3.30;99.90;;;;;;4938183;29;20283;-66
2022/12/03 16:12:24;;;;;;;7.30;4.80;;;3.30;99.90;;;;;;4938232;29;20173;-66
2022/12/03 16:14:50;;;;;;;8.77;4.90;;;3.20;99.90;;;;;;4937275;29;20206;-66
2022/12/03 16:17:16;;;;;;;4.50;3.83;;;3.20;99.90;;;;;;4937368;29;20178;-66
2022/12/03 16:19:41;;;;;;;5.53;4.63;;;3.20;99.90;;;;;;4937963;29;20465;-66
2022/12/03 16:22:07;;;;;;;7.00;5.37;;;3.20;99.90;;;;;;4938059;29;20645;-66
2022/12/03 16:24:33;;;;;;;6.77;4.73;;;3.20;99.90;;;;;;4937336;29;20204;-66
2022/12/03 16:26:58;;;;;;;5.30;4.67;;;3.20;99.90;;;;;;4937796;29;20213;-66
2022/12/03 16:29:24;;;;;;;6.17;5.10;;;3.20;99.90;;;;;;4938020;29;20181;-67
2022/12/03 16:31:50;;;;;;;6.97;5.53;;;3.20;99.90;;;;;;4937738;29;20181;-66
2022/12/03 16:34:15;;;;;;;12.80;6.20;;;3.20;99.90;;;;;;4937248;29;20185;-65
2022/12/03 16:36:41;;;;;;;8.17;5.40;;;3.20;99.90;;;;;;4937248;29;20233;-68
2022/12/03 16:39:07;;;;;;;9.17;7.50;;;3.20;99.90;;;;;;4937695;29;20177;-67
2022/12/03 16:41:32;;;;;;;9.30;6.43;;;3.20;99.90;;;;;;4937761;29;20177;-67
2022/12/03 16:44:01;;;;;;;6.50;5.50;;;3.20;99.90;;;;;;4937615;29;20199;-68
2022/12/03 16:46:26;;;;;;;6.85;5.40;;;3.20;99.90;;;;;;4937017;29;20213;-72
2022/12/03 16:48:54;;;;;;;5.90;3.90;;;3.20;99.90;;;;;;4937346;29;20216;-66
2022/12/03 16:51:20;;;;;;;11.60;5.93;;;3.10;99.90;;;;;;4937441;29;20221;-67
2022/12/03 16:53:46;;;;;;;7.67;6.00;;;3.20;99.90;;;;;;4935330;29;20605;-64
2022/12/03 16:56:12;;;;;;;8.13;5.10;;;3.20;99.90;;;;;;4935317;29;20425;-66
2022/12/03 16:58:37;;;;;;;8.83;5.20;;;3.10;99.90;;;;;;4936801;29;20205;-65
2022/12/03 17:01:03;;;;;;;8.07;5.73;;;3.10;99.90;;;;;;4936324;29;20260;-66
2022/12/03 17:03:29;;;;;;;5.30;4.80;;;3.10;99.90;;;;;;4935710;29;20173;-65
2022/12/03 17:05:54;;;;;;;12.57;7.20;;;3.20;99.90;;;;;;4936254;29;20193;-65
2022/12/03 17:08:20;;;;;;;7.53;5.47;;;3.20;99.90;;;;;;4936949;28;20181;-67
2022/12/03 17:10:46;;;;;;;6.23;4.33;;;3.20;99.90;;;;;;4936865;29;20295;-66
2022/12/03 17:13:11;;;;;;;8.83;5.47;;;3.20;99.90;;;;;;4936314;29;20515;-66
2022/12/03 17:15:38;;;;;;;9.70;6.77;;;3.20;99.90;;;;;;4936075;29;20443;-66
2022/12/03 17:18:04;;;;;;;6.03;5.40;;;3.20;99.90;;;;;;4936641;29;20308;-66
2022/12/03 17:20:30;;;;;;;6.87;5.20;;;3.10;99.90;;;;;;4936681;29;20268;-65
2022/12/03 17:22:57;;;;;;;11.68;5.97;;;3.10;99.90;;;;;;4936567;29;20413;-67
2022/12/03 17:25:22;;;;;;;7.82;5.97;;;3.10;99.90;;;;;;4936258;29;20205;-63
2022/12/03 17:27:48;;;;;;;7.17;5.93;;;3.20;99.90;;;;;;4938114;29;20180;-66
2022/12/03 17:30:14;;;;;;;14.20;6.23;;;3.20;99.90;;;;;;4936209;29;20629;-66
2022/12/03 17:32:40;;;;;;;13.73;6.93;;;3.10;99.90;;;;;;4936096;29;20193;-64
2022/12/03 17:35:06;;;;;;;9.13;5.57;;;3.10;99.90;;;;;;4936448;29;20251;-66
2022/12/03 17:37:31;;;;;;;9.07;6.80;;;3.10;99.90;;;;;;4936320;29;20177;-66
2022/12/03 17:39:57;;;;;;;11.23;5.93;;;3.10;99.90;;;;;;4936413;29;20417;-64
2022/12/03 17:42:22;;;;;;;8.53;5.50;;;3.10;99.90;;;;;;4936482;29;20260;-67
2022/12/03 17:44:48;;;;;;;9.90;7.83;;;3.10;99.90;;;;;;4935451;29;20216;-68
2022/12/03 17:47:14;;;;;;;13.10;6.90;;;3.10;99.90;;;;;;4936461;29;20363;-68
2022/12/03 17:49:39;;;;;;;5.70;4.70;;;3.10;99.90;;;;;;4936434;29;20178;-69
2022/12/03 17:52:05;;;;;;;11.90;5.50;;;3.10;99.90;;;;;;4936991;29;20649;-68
2022/12/03 17:54:30;;;;;;;7.00;5.37;;;3.10;99.90;;;;;;4935921;29;20193;-68
2022/12/03 17:56:56;;;;;;;7.93;5.47;;;3.10;99.90;;;;;;4936220;29;20256;-67
2022/12/03 17:59:21;;;;;;;17.00;6.07;;;3.10;99.90;;;;;;4936421;29;20177;-68
2022/12/03 18:01:47;;;;;;;12.33;6.30;;;3.10;99.90;;;;;;4936312;29;20178;-66
2022/12/03 18:04:13;;;;;;;8.60;6.03;;;3.10;99.90;;;;;;4935028;29;20205;-69
2022/12/03 18:06:38;;;;;;;6.67;4.60;;;3.00;99.90;;;;;;4936046;29;20193;-66
2022/12/03 18:09:04;;;;;;;11.97;6.33;;;3.10;99.90;;;;;;4937613;29;20189;-66
2022/12/03 18:11:30;;;;;;;7.13;5.80;;;3.10;99.90;;;;;;4935204;29;20205;-67
2022/12/03 18:13:56;;;;;;;10.97;6.27;;;3.10;99.90;;;;;;4935595;29;20194;-66